createdAt,value
2019-03-04T00:02:28.782Z,99117.36
2019-03-04T00:07:32.355Z,99120.73
2019-03-04T00:12:35.924Z,99111.77
2019-03-04T00:17:39.593Z,99100.38
2019-03-04T00:22:43.193Z,99090.84
2019-03-04T00:27:46.726Z,99084.52
2019-03-04T00:32:50.275Z,99082.34
2019-03-04T00:37:53.818Z,99068.73
2019-03-04T00:42:57.415Z,99065.69
2019-03-04T00:48:01.067Z,99068.83
2019-03-04T00:53:05.038Z,99053.00
2019-03-04T00:58:09.284Z,99049.52
2019-03-04T01:03:12.904Z,99048.16
2019-03-04T01:08:16.476Z,99022.77
2019-03-04T01:13:20.044Z,99017.52
2019-03-04T01:18:23.612Z,99015.02
2019-03-04T01:23:27.161Z,99007.13
2019-03-04T01:28:30.731Z,98992.38
2019-03-04T01:33:34.349Z,98986.66
2019-03-04T01:38:37.873Z,98976.60
2019-03-04T01:43:41.419Z,98976.60
2019-03-04T01:48:45.396Z,98988.41
2019-03-04T01:53:49.032Z,98973.51
2019-03-04T01:58:52.620Z,98974.91
2019-03-04T02:03:56.159Z,98971.82
2019-03-04T02:08:59.702Z,98968.38
2019-03-04T02:14:03.252Z,98975.34
2019-03-04T02:19:06.793Z,98974.81
2019-03-04T02:24:18.884Z,98976.94
2019-03-04T02:29:22.399Z,98981.24
2019-03-04T02:34:26.005Z,98978.25
2019-03-04T02:39:29.520Z,98973.80
2019-03-04T02:44:33.086Z,98962.84
2019-03-04T02:49:36.671Z,98951.08
2019-03-04T02:54:40.239Z,98932.75
2019-03-04T02:59:43.838Z,98923.74
2019-03-04T03:04:47.372Z,98910.25
2019-03-04T03:09:50.943Z,98901.59
2019-03-04T03:14:54.841Z,98900.67
2019-03-04T03:19:58.366Z,98892.32
2019-03-04T03:25:01.900Z,98886.14
2019-03-04T03:30:08.886Z,98880.78
2019-03-04T03:35:12.403Z,98882.08
2019-03-04T03:40:20.148Z,98878.51
2019-03-04T03:45:23.696Z,98881.05
2019-03-04T03:50:27.292Z,98900.61
2019-03-04T03:55:30.813Z,98900.13
2019-03-04T04:00:34.406Z,98878.16
2019-03-04T04:05:37.946Z,98883.01
2019-03-04T04:10:41.559Z,98896.03
2019-03-04T04:15:45.181Z,98892.88
2019-03-04T04:20:48.720Z,98875.05
2019-03-04T04:25:52.317Z,98887.17
2019-03-04T04:30:55.869Z,98886.60
2019-03-04T04:35:59.405Z,98878.42
2019-03-04T04:41:02.966Z,98874.56
2019-03-04T04:46:06.505Z,98877.17
2019-03-04T04:51:11.351Z,98855.36
2019-03-04T04:56:14.949Z,98836.98
2019-03-04T05:01:18.513Z,98852.16
2019-03-04T05:06:22.033Z,98864.42
2019-03-04T05:11:25.972Z,98852.20
2019-03-04T05:16:29.498Z,98856.60
2019-03-04T05:21:33.096Z,98848.35
2019-03-04T05:26:36.615Z,98838.73
2019-03-04T05:31:40.177Z,98819.50
2019-03-04T05:36:43.785Z,98812.93
2019-03-04T05:41:47.380Z,98795.97
2019-03-04T05:46:50.941Z,98805.17
2019-03-04T05:51:54.477Z,98793.92
2019-03-04T05:56:58.056Z,98795.66
2019-03-04T06:02:04.982Z,98793.67
2019-03-04T06:07:10.119Z,98788.02
2019-03-04T06:12:13.744Z,98770.17
2019-03-04T06:17:17.283Z,98765.62
2019-03-04T06:22:20.859Z,98747.88
2019-03-04T06:27:24.430Z,98727.13
2019-03-04T06:32:27.978Z,98714.34
2019-03-04T06:37:31.558Z,98693.63
2019-03-04T06:42:35.212Z,98711.52
2019-03-04T06:47:38.732Z,98703.39
2019-03-04T06:52:42.275Z,98675.81
2019-03-04T06:57:45.858Z,98694.61
2019-03-04T07:02:49.407Z,98689.20
2019-03-04T07:07:52.982Z,98679.00
2019-03-04T07:12:56.572Z,98686.55
2019-03-04T07:18:00.134Z,98675.94
2019-03-04T07:23:03.683Z,98674.91
2019-03-04T07:28:07.258Z,98664.05
2019-03-04T07:33:10.781Z,98656.39
2019-03-04T07:38:20.281Z,98646.84
2019-03-04T07:43:23.844Z,98647.95
2019-03-04T07:48:27.403Z,98641.94
2019-03-04T07:53:31.013Z,98645.94
2019-03-04T07:58:34.562Z,98627.05
2019-03-04T08:03:38.107Z,98630.78
2019-03-04T08:08:45.905Z,98624.61
2019-03-04T08:14:02.250Z,98604.98
2019-03-04T08:19:05.800Z,98586.77
2019-03-04T08:24:09.379Z,98561.19
2019-03-04T08:29:12.892Z,98559.34
2019-03-04T08:34:16.469Z,98543.20
2019-03-04T08:39:20.026Z,98550.35
2019-03-04T08:44:23.614Z,98547.37
2019-03-04T08:49:27.175Z,98551.97
2019-03-04T08:54:30.715Z,98536.02
2019-03-04T08:59:34.246Z,98515.06
2019-03-04T09:04:38.188Z,98506.84
2019-03-04T09:09:41.744Z,98510.30
2019-03-04T09:14:45.342Z,98510.53
2019-03-04T09:19:48.873Z,98506.80
2019-03-04T09:24:52.403Z,98489.55
2019-03-04T09:29:55.938Z,98467.74
2019-03-04T09:34:59.501Z,98447.17
2019-03-04T09:40:03.062Z,98441.84
2019-03-04T09:45:12.027Z,98434.90
2019-03-04T09:50:26.319Z,98416.94
2019-03-04T09:55:29.878Z,98390.88
2019-03-04T10:00:42.204Z,98403.47
2019-03-04T10:06:05.716Z,98402.88
2019-03-04T10:11:18.406Z,98389.98
2019-03-04T10:16:27.999Z,98379.27
2019-03-04T10:21:35.112Z,98373.09
2019-03-04T10:26:47.286Z,98388.19
2019-03-04T10:32:06.304Z,98379.52
2019-03-04T10:37:34.613Z,98375.09
2019-03-04T10:43:04.039Z,98355.58
2019-03-04T10:48:07.586Z,98334.68
2019-03-04T10:53:11.168Z,98322.08
2019-03-04T10:58:14.720Z,98306.38
2019-03-04T11:03:18.315Z,98306.27
2019-03-04T11:08:21.974Z,98293.05
2019-03-04T11:13:25.563Z,98296.96
2019-03-04T11:18:29.086Z,98293.77
2019-03-04T11:23:33.130Z,98300.38
2019-03-04T11:28:36.684Z,98293.26
2019-03-04T11:33:40.305Z,98292.88
2019-03-04T11:38:49.597Z,98297.22
2019-03-04T11:43:53.174Z,98280.75
2019-03-04T11:48:56.723Z,98280.73
2019-03-04T11:54:00.277Z,98273.39
2019-03-04T11:59:04.841Z,98275.26
2019-03-04T12:04:08.363Z,98265.47
2019-03-04T12:09:13.578Z,98252.89
2019-03-04T12:14:17.153Z,98241.72
2019-03-04T12:19:20.722Z,98236.05
2019-03-04T12:24:24.284Z,98219.42
2019-03-04T12:29:27.832Z,98213.87
2019-03-04T12:34:31.403Z,98206.05
2019-03-04T12:39:34.953Z,98199.00
2019-03-04T12:44:38.533Z,98184.63
2019-03-04T12:49:42.049Z,98175.00
2019-03-04T12:54:45.589Z,98157.06
2019-03-04T12:59:49.144Z,98139.72
2019-03-04T13:04:52.684Z,98128.03
2019-03-04T13:09:56.227Z,98111.98
2019-03-04T13:14:59.793Z,98109.00
2019-03-04T13:20:03.892Z,98100.50
2019-03-04T13:25:08.139Z,98103.80
2019-03-04T13:30:23.582Z,98102.59
2019-03-04T13:35:32.555Z,98097.33
2019-03-04T13:40:36.093Z,98085.20
2019-03-04T13:45:39.647Z,98081.63
2019-03-04T13:50:43.172Z,98083.20
2019-03-04T13:55:46.742Z,98082.43
2019-03-04T14:00:50.300Z,98082.12
2019-03-04T14:05:53.854Z,98099.31
2019-03-04T14:10:57.417Z,98086.23
2019-03-04T14:16:01.029Z,98058.71
2019-03-04T14:21:05.431Z,98058.63
2019-03-04T14:26:09.392Z,98042.63
2019-03-04T14:31:13.021Z,98026.47
2019-03-04T14:36:16.698Z,98045.28
2019-03-04T14:41:20.246Z,98032.40
2019-03-04T14:46:24.330Z,98031.83
2019-03-04T14:51:27.895Z,98033.36
2019-03-04T14:56:31.491Z,98027.80
2019-03-04T15:01:35.040Z,98031.34
2019-03-04T15:06:38.582Z,98037.48
2019-03-04T15:11:42.173Z,98028.02
2019-03-04T15:16:45.726Z,98052.96
2019-03-04T15:21:49.342Z,98023.91
2019-03-04T15:26:52.893Z,98044.20
2019-03-04T15:31:56.453Z,98047.00
2019-03-04T15:36:59.986Z,98018.32
2019-03-04T15:42:03.572Z,98027.22
2019-03-04T15:47:07.205Z,98033.13
2019-03-04T15:52:10.824Z,98004.95
2019-03-04T15:57:16.923Z,98028.87
2019-03-04T16:02:20.481Z,98020.23
2019-03-04T16:07:24.077Z,98029.76
2019-03-04T16:12:27.886Z,98026.15
2019-03-04T16:17:31.448Z,98027.84
2019-03-04T16:22:35.090Z,98028.47
2019-03-04T16:27:38.791Z,98023.43
2019-03-04T16:32:42.555Z,98018.39
2019-03-04T16:37:46.102Z,98016.03
2019-03-04T16:42:49.691Z,98035.45
2019-03-04T16:47:53.237Z,98029.64
2019-03-04T16:52:59.231Z,98032.38
2019-03-04T16:58:03.016Z,98031.77
2019-03-04T17:03:06.548Z,98005.63
2019-03-04T17:08:10.092Z,97991.88
2019-03-04T17:13:13.638Z,98005.58
2019-03-04T17:18:17.589Z,98016.69
2019-03-04T17:23:21.283Z,98037.45
2019-03-04T17:28:24.865Z,98046.83
2019-03-04T17:33:28.864Z,98057.47
2019-03-04T17:38:32.383Z,98056.61
2019-03-04T17:43:35.968Z,98088.27
2019-03-04T17:48:39.536Z,98071.40
2019-03-04T17:53:43.132Z,98083.34
2019-03-04T17:58:46.675Z,98095.49
2019-03-04T18:03:50.216Z,98092.70
2019-03-04T18:08:53.789Z,98090.90
2019-03-04T18:13:57.432Z,98101.64
2019-03-04T18:19:00.995Z,98099.98
2019-03-04T18:24:05.104Z,98095.80
2019-03-04T18:29:23.871Z,98086.20
2019-03-04T18:34:45.667Z,98075.70
2019-03-04T18:40:11.842Z,98094.33
2019-03-04T18:45:18.634Z,98079.56
2019-03-04T18:50:23.179Z,98076.19
2019-03-04T18:55:26.962Z,98085.86
2019-03-04T19:00:30.654Z,98089.55
2019-03-04T19:05:34.322Z,98077.98
2019-03-04T19:10:38.391Z,98083.64
2019-03-04T19:15:42.418Z,98079.30
2019-03-04T19:20:46.295Z,98072.78
2019-03-04T19:25:50.617Z,98089.09
2019-03-04T19:30:54.201Z,98079.63
2019-03-04T19:35:57.780Z,98069.52
2019-03-04T19:41:01.400Z,98084.13
2019-03-04T19:46:05.092Z,98079.30
2019-03-04T19:51:08.644Z,98067.52
2019-03-04T19:56:12.186Z,98076.12
2019-03-04T20:01:15.720Z,98071.33
2019-03-04T20:06:19.260Z,98064.00
2019-03-04T20:11:22.839Z,98083.77
2019-03-04T20:16:26.375Z,98087.66
2019-03-04T20:21:29.990Z,98095.08
2019-03-04T20:26:33.554Z,98100.01
2019-03-04T20:31:37.100Z,98104.83
2019-03-04T20:36:40.669Z,98111.32
2019-03-04T20:41:44.248Z,98111.63
2019-03-04T20:46:47.860Z,98128.61
2019-03-04T20:51:51.479Z,98138.72
2019-03-04T20:56:55.075Z,98143.06
2019-03-04T21:01:58.696Z,98156.16
2019-03-04T21:07:02.230Z,98213.19
2019-03-04T21:12:05.799Z,98241.49
2019-03-04T21:17:09.341Z,98293.94
2019-03-04T21:22:12.880Z,98312.75
2019-03-04T21:27:16.553Z,98312.75
2019-03-04T21:32:32.583Z,98304.89
2019-03-04T21:37:38.657Z,98317.95
2019-03-04T21:42:54.449Z,98335.78
2019-03-04T21:48:20.586Z,98345.77
2019-03-04T21:53:29.869Z,98361.39
2019-03-04T21:58:33.412Z,98381.39
2019-03-04T22:03:37.036Z,98401.80
2019-03-04T22:08:40.579Z,98410.06
2019-03-04T22:13:44.318Z,98420.06
2019-03-04T22:18:48.127Z,98433.06
2019-03-04T22:23:54.205Z,98442.59
2019-03-04T22:28:58.044Z,98449.09
2019-03-04T22:34:01.584Z,98469.05
2019-03-04T22:39:06.631Z,98489.04
2019-03-04T22:44:10.276Z,98483.23
2019-03-04T22:49:13.817Z,98492.63
2019-03-04T22:54:17.746Z,98514.30
2019-03-04T22:59:21.315Z,98522.44
2019-03-04T23:04:25.295Z,98529.86
2019-03-04T23:09:32.137Z,98545.88
2019-03-04T23:14:35.660Z,98537.91
2019-03-04T23:19:39.239Z,98543.51
2019-03-04T23:24:42.864Z,98555.67
2019-03-04T23:29:46.742Z,98549.70
2019-03-04T23:34:50.261Z,98560.16
2019-03-04T23:39:53.807Z,98559.09
2019-03-04T23:44:57.367Z,98565.08
2019-03-04T23:50:20.941Z,98579.88
2019-03-04T23:55:24.474Z,98586.48
